罗盘
风向 的 风向 250° Hamburg Airport 5/23
风: 7 kt, 3 beaufort

7 kt

2 kt
改变
0 1.000 2.000 3.000 4.000 5.000
FEW 200 ft
BKN 400 ft
METAR ETHS 291020Z 25007KT 6000 FEW002 BKN004 09/08 Q1002 BLACKYLO BLU TEMPO YLO

METAR Hamburg Airport - EDDH/HAM

Hamburg Airport是Hamburg,德国中的大型机场。 该机场有2条跑道: 5/23 和 15/33. 该领域的国际民航组织标志是EDDH 它的国际航空运输协会代码是HAM.

这份报告是针对2022年9月29日 12:20, 当地时间在Fassberg Air Base进行的。

机场观察

风向为250°,速度为7 kt。

可见度为6 km。

有几云在200 ft的高度 和 碎云在400 ft的高度。 破损或更高的上限为400 ft。

温度为9 °C,阵风为6 °C。 露点为8 °C,相对湿度为94%。 海平面上的气压为1002 hPa (QNH)。

发展趋势

  • 暂时的

    可变方向的风很小或没有。

白天

今天,太阳从07:18升起,在19:02降落。 这适用于Hamburg Airport,世界夏令时可能有所不同。 当地时间与世界标准时间之间的时差为+2 小时。 夏令时目前正在进行中。

公司介绍

我们没有关于这个机场的公司信息。

体会

到Vliegles.nl去找飞行课程,跳伞和其他飞行体验。 浏览页面,了解Hamburg Airport附近所有可用的活动。 你也可以使用搜索功能来寻找你所在地附近的特定飞行课程、跳伞或其他飞行体验。

跑道

Id 标题 侧风 逆风 侧风 %
5/23 050°-230° 2 kt 7 kt 34 %
15/33 152°-332° 7 kt 99 %

逆风成分最大的方向会被突出显示,并用于横风计算。 这并不一定意味着这个方向在使用。

乌云

200 ft FEW 几云
400 ft BKN 碎云

温度 & 天气

温度 9 °C
露点 8 °C
相对湿度 94%
风寒 6 °C
Kp-index 2 (0-9)

白天

日出
07:17
中午
13:09
日落
19:01 (6h 28m)

小工具

你想在你的网站上有一个关于Hamburg Airport的当前航空天气(METAR)的小部件吗?

</> 显示HTML代码

我们和第三方通过cookies跟踪您在我们网站上的上网行为。如果您继续,我们认为您同意我们的cookie政策。 了解更多